createdAt,value
2023-01-22T00:01:48.034Z,15.90
2023-01-22T00:04:36.560Z,12.60
2023-01-22T00:07:11.613Z,12.30
2023-01-22T00:09:59.550Z,5.80
2023-01-22T00:12:35.315Z,10.90
2023-01-22T00:15:23.561Z,11.70
2023-01-22T00:17:58.084Z,11.40
2023-01-22T00:20:45.739Z,11.80
2023-01-22T00:23:27.741Z,11.90
2023-01-22T00:26:12.203Z,12.10
2023-01-22T00:28:54.559Z,10.80
2023-01-22T00:31:42.598Z,7.80
2023-01-22T00:34:23.528Z,10.70
2023-01-22T00:37:05.680Z,10.20
2023-01-22T00:39:47.736Z,11.00
2023-01-22T00:42:29.860Z,12.00
2023-01-22T00:45:13.878Z,9.50
2023-01-22T00:47:55.454Z,6.70
2023-01-22T00:50:38.307Z,7.30
2023-01-22T00:53:19.650Z,8.00
2023-01-22T00:56:02.745Z,6.70
2023-01-22T00:58:45.723Z,7.40
2023-01-22T01:01:27.735Z,10.50
2023-01-22T01:04:09.933Z,8.50
2023-01-22T01:06:57.529Z,8.60
2023-01-22T01:09:39.525Z,7.40
2023-01-22T01:12:34.532Z,6.30
2023-01-22T01:15:22.541Z,4.30
2023-01-22T01:17:57.653Z,7.40
2023-01-22T01:20:45.545Z,8.60
2023-01-22T01:23:20.659Z,7.90
2023-01-22T01:26:13.557Z,8.00
2023-01-22T01:28:52.617Z,4.80
2023-01-22T01:31:40.541Z,5.60
2023-01-22T01:34:15.864Z,6.20
2023-01-22T01:37:03.616Z,8.10
2023-01-22T01:39:45.501Z,7.90
2023-01-22T01:42:46.520Z,6.10
2023-01-22T01:45:39.716Z,5.60
2023-01-22T01:48:34.493Z,5.90
2023-01-22T01:51:42.516Z,6.40
2023-01-22T01:54:30.536Z,4.90
2023-01-22T01:57:19.399Z,6.20
2023-01-22T02:00:08.540Z,6.40
2023-01-22T02:02:43.200Z,6.20
2023-01-22T02:05:31.501Z,4.80
2023-01-22T02:08:13.669Z,4.30
2023-01-22T02:10:55.515Z,3.90
2023-01-22T02:13:39.658Z,4.60
2023-01-22T02:16:21.560Z,3.20
2023-01-22T02:19:02.528Z,5.50
2023-01-22T02:21:48.647Z,5.70
2023-01-22T02:24:29.500Z,3.40
2023-01-22T02:27:10.681Z,4.00
2023-01-22T02:29:52.723Z,2.30
2023-01-22T02:32:33.859Z,4.40
2023-01-22T02:35:15.514Z,4.20
2023-01-22T02:38:03.501Z,4.30
2023-01-22T02:40:50.137Z,4.40
2023-01-22T02:43:38.639Z,3.20
2023-01-22T02:46:14.166Z,4.40
2023-01-22T02:49:03.503Z,4.50
2023-01-22T02:51:38.077Z,4.30
2023-01-22T02:54:25.523Z,4.00
2023-01-22T02:56:59.907Z,4.40
2023-01-22T02:59:48.505Z,3.70
2023-01-22T03:02:23.055Z,3.60
2023-01-22T03:05:11.526Z,4.70
2023-01-22T03:07:45.911Z,3.40
2023-01-22T03:10:34.490Z,2.80
2023-01-22T03:13:27.675Z,4.50
2023-01-22T03:16:38.501Z,5.60
2023-01-22T03:19:37.514Z,5.00
2023-01-22T03:22:18.619Z,4.40
2023-01-22T03:24:59.497Z,4.50
2023-01-22T03:28:00.554Z,4.70
2023-01-22T03:30:41.697Z,2.90
2023-01-22T03:33:29.510Z,4.10
2023-01-22T03:36:08.062Z,2.90
2023-01-22T03:38:56.488Z,4.50
2023-01-22T03:41:37.586Z,3.40
2023-01-22T03:44:26.547Z,4.00
2023-01-22T03:47:08.493Z,3.20
2023-01-22T03:49:49.597Z,4.50
2023-01-22T03:52:30.707Z,2.40
2023-01-22T03:55:15.610Z,3.90
2023-01-22T03:57:56.686Z,5.40
2023-01-22T04:00:44.504Z,4.40
2023-01-22T04:03:25.647Z,4.10
2023-01-22T04:06:22.488Z,4.50
2023-01-22T04:09:10.468Z,2.00
2023-01-22T04:11:51.601Z,3.50
2023-01-22T04:14:32.476Z,4.20
2023-01-22T04:17:20.491Z,3.30
2023-01-22T04:19:55.137Z,3.50
2023-01-22T04:22:43.701Z,4.00
2023-01-22T04:25:25.491Z,2.80
2023-01-22T04:28:08.234Z,2.20
2023-01-22T04:30:51.612Z,4.80
2023-01-22T04:33:32.688Z,3.80
2023-01-22T04:36:13.685Z,3.90
2023-01-22T04:39:02.685Z,3.40
2023-01-22T04:41:44.687Z,4.90
2023-01-22T04:44:25.802Z,4.20
2023-01-22T04:47:07.671Z,3.60
2023-01-22T04:49:48.683Z,3.90
2023-01-22T04:52:31.483Z,3.70
2023-01-22T04:55:20.508Z,3.80
2023-01-22T04:57:57.744Z,4.30
2023-01-22T05:00:45.473Z,4.70
2023-01-22T05:03:26.478Z,3.50
2023-01-22T05:06:18.467Z,5.90
2023-01-22T05:08:59.879Z,3.50
2023-01-22T05:11:47.467Z,4.40
2023-01-22T05:14:28.609Z,4.00
2023-01-22T05:17:10.601Z,2.50
2023-01-22T05:19:51.661Z,3.60
2023-01-22T05:22:32.795Z,5.20
2023-01-22T05:25:16.467Z,5.80
2023-01-22T05:27:57.817Z,7.20
2023-01-22T05:30:39.569Z,5.20
2023-01-22T05:33:20.787Z,5.40
2023-01-22T05:36:06.487Z,7.20
2023-01-22T05:38:47.784Z,3.40
2023-01-22T05:41:29.472Z,3.20
2023-01-22T05:44:11.609Z,4.10
2023-01-22T05:46:52.464Z,2.50
2023-01-22T05:49:40.669Z,4.80
2023-01-22T05:52:17.105Z,4.30
2023-01-22T05:55:08.669Z,4.80
2023-01-22T05:57:54.458Z,3.90
2023-01-22T06:00:42.677Z,3.20
2023-01-22T06:03:24.500Z,2.60
2023-01-22T06:06:18.436Z,4.30
2023-01-22T06:09:06.615Z,3.60
2023-01-22T06:11:47.662Z,3.40
2023-01-22T06:14:29.591Z,3.00
2023-01-22T06:17:10.462Z,3.60
2023-01-22T06:22:34.651Z,2.90
2023-01-22T06:25:16.581Z,3.60
2023-01-22T06:27:57.518Z,1.80
2023-01-22T06:30:38.651Z,2.60
2023-01-22T06:33:20.461Z,3.20
2023-01-22T06:36:03.278Z,3.70
2023-01-22T06:38:44.441Z,3.00
2023-01-22T06:41:25.666Z,1.80
2023-01-22T06:44:06.448Z,2.70
2023-01-22T06:46:47.670Z,4.00
2023-01-22T06:49:28.463Z,3.50
2023-01-22T06:52:12.632Z,2.00
2023-01-22T06:54:53.464Z,3.70
2023-01-22T07:00:10.790Z,2.30
2023-01-22T07:02:58.444Z,2.40
2023-01-22T07:05:33.631Z,3.30
2023-01-22T07:08:22.457Z,3.00
2023-01-22T07:11:07.572Z,4.50
2023-01-22T07:13:55.570Z,3.50
2023-01-22T07:16:37.463Z,4.50
2023-01-22T07:19:25.503Z,3.30
2023-01-22T07:22:00.639Z,4.40
2023-01-22T07:24:48.472Z,5.80
2023-01-22T07:27:23.613Z,6.10
2023-01-22T07:30:13.448Z,4.30
2023-01-22T07:32:48.622Z,5.20
2023-01-22T07:35:37.485Z,3.60
2023-01-22T07:38:12.597Z,3.60
2023-01-22T07:41:00.434Z,4.90
2023-01-22T07:43:35.797Z,4.00
2023-01-22T07:46:23.562Z,2.60
2023-01-22T07:48:58.563Z,3.50
2023-01-22T07:51:46.466Z,4.70
2023-01-22T07:54:22.147Z,3.70
2023-01-22T07:57:11.524Z,3.60
2023-01-22T07:59:59.557Z,2.90
2023-01-22T08:02:33.874Z,2.70
2023-01-22T08:05:23.556Z,2.80
2023-01-22T08:08:19.429Z,3.80
2023-01-22T08:11:07.513Z,2.80
2023-01-22T08:13:42.661Z,2.40
2023-01-22T08:16:30.523Z,2.10
2023-01-22T08:19:05.627Z,3.10
2023-01-22T08:21:53.456Z,2.00
2023-01-22T08:24:35.440Z,2.10
2023-01-22T08:27:30.432Z,3.20
2023-01-22T08:30:19.682Z,3.00
2023-01-22T08:32:55.472Z,5.10
2023-01-22T08:35:46.437Z,4.20
2023-01-22T08:38:20.646Z,4.50
2023-01-22T08:41:08.439Z,2.90
2023-01-22T08:43:43.610Z,5.90
2023-01-22T08:46:31.439Z,4.10
2023-01-22T08:49:06.639Z,7.50
2023-01-22T08:51:54.444Z,6.10
2023-01-22T08:54:35.560Z,5.10
2023-01-22T08:57:16.520Z,5.40
2023-01-22T09:00:01.605Z,9.00
2023-01-22T09:02:43.774Z,6.00
2023-01-22T09:05:24.563Z,5.80
2023-01-22T09:08:13.430Z,3.90
2023-01-22T09:10:49.759Z,5.60
2023-01-22T09:13:38.619Z,6.10
2023-01-22T09:16:21.998Z,7.60
2023-01-22T09:19:18.506Z,5.50
2023-01-22T09:22:13.663Z,5.10
2023-01-22T09:24:48.758Z,4.00
2023-01-22T09:27:36.442Z,4.90
2023-01-22T09:30:21.539Z,4.80
2023-01-22T09:33:02.827Z,3.70
2023-01-22T09:35:50.416Z,3.30
2023-01-22T09:38:24.845Z,4.70
2023-01-22T09:41:13.369Z,5.90
2023-01-22T09:44:01.423Z,4.00
2023-01-22T09:47:04.624Z,4.80
2023-01-22T09:49:56.825Z,5.20
2023-01-22T09:52:41.256Z,6.00
2023-01-22T09:55:25.425Z,7.10
2023-01-22T09:58:08.791Z,10.90
2023-01-22T10:00:54.433Z,10.20
2023-01-22T10:03:39.603Z,6.00
2023-01-22T10:06:25.403Z,6.60
2023-01-22T10:09:28.639Z,6.60
2023-01-22T10:12:20.596Z,6.30
2023-01-22T10:15:10.480Z,5.30
2023-01-22T10:17:46.962Z,8.60
2023-01-22T10:20:28.412Z,7.20
2023-01-22T10:23:06.575Z,5.70
2023-01-22T10:25:48.407Z,4.90
2023-01-22T10:28:40.629Z,5.10
2023-01-22T10:31:29.269Z,4.70
2023-01-22T10:34:45.429Z,5.80
2023-01-22T10:37:26.494Z,6.00
2023-01-22T10:40:08.762Z,5.10
2023-01-22T10:42:51.600Z,4.50
2023-01-22T10:45:32.790Z,4.30
2023-01-22T10:48:25.654Z,5.10
2023-01-22T10:51:21.583Z,4.30
2023-01-22T10:54:03.517Z,7.10
2023-01-22T10:56:45.746Z,5.80
2023-01-22T10:59:37.387Z,6.60
2023-01-22T11:02:23.687Z,5.30
2023-01-22T11:05:14.405Z,6.80
2023-01-22T11:08:21.409Z,7.00
2023-01-22T11:11:13.399Z,5.60
2023-01-22T11:14:12.706Z,6.50
2023-01-22T11:17:05.563Z,6.30
2023-01-22T11:19:53.675Z,5.30
2023-01-22T11:22:41.408Z,7.70
2023-01-22T11:25:22.542Z,8.20
2023-01-22T11:28:12.419Z,5.90
2023-01-22T11:31:06.821Z,8.50
2023-01-22T11:34:16.414Z,9.10
2023-01-22T11:37:15.625Z,8.60
2023-01-22T11:40:15.439Z,8.10
2023-01-22T11:43:09.828Z,7.30
2023-01-22T11:46:13.569Z,8.50
2023-01-22T11:49:01.163Z,7.40
2023-01-22T11:52:06.507Z,7.10
2023-01-22T11:55:02.734Z,8.40
2023-01-22T11:57:50.383Z,8.00
2023-01-22T12:00:34.550Z,6.20
2023-01-22T12:03:21.391Z,7.90
2023-01-22T12:06:41.397Z,8.40
2023-01-22T12:09:39.419Z,9.00
2023-01-22T12:12:42.248Z,9.20
2023-01-22T12:15:29.412Z,8.70
2023-01-22T12:18:46.617Z,7.20
2023-01-22T12:21:55.472Z,8.70
2023-01-22T12:24:48.602Z,7.20
2023-01-22T12:28:12.386Z,9.90
2023-01-22T12:30:56.694Z,10.50
2023-01-22T12:33:45.433Z,7.20
2023-01-22T12:36:29.587Z,9.70
2023-01-22T12:39:19.444Z,10.40
2023-01-22T12:42:19.527Z,10.40
2023-01-22T12:45:08.845Z,8.60
2023-01-22T12:47:53.568Z,9.20
2023-01-22T12:50:36.406Z,8.30
2023-01-22T12:53:39.380Z,10.00
2023-01-22T12:56:21.434Z,9.40
2023-01-22T12:59:04.543Z,8.60
2023-01-22T13:01:45.381Z,11.60
2023-01-22T13:04:35.656Z,8.50
2023-01-22T13:07:32.523Z,10.60
2023-01-22T13:10:44.499Z,7.50
2023-01-22T13:13:35.406Z,9.10
2023-01-22T13:16:22.680Z,11.70
2023-01-22T13:19:06.387Z,12.30
2023-01-22T13:21:47.785Z,5.10
2023-01-22T13:24:29.439Z,6.20
2023-01-22T13:27:21.346Z,9.80
2023-01-22T13:30:26.403Z,4.70
2023-01-22T13:33:21.510Z,7.80
2023-01-22T13:36:02.405Z,7.10
2023-01-22T13:38:43.519Z,5.40
2023-01-22T13:41:32.388Z,7.70
2023-01-22T13:44:17.658Z,12.20
2023-01-22T13:46:59.687Z,10.30
2023-01-22T13:49:56.511Z,9.10
2023-01-22T13:52:40.407Z,10.80
2023-01-22T13:55:31.396Z,7.50
2023-01-22T13:58:07.018Z,10.50
2023-01-22T14:01:06.531Z,11.10
2023-01-22T14:06:34.525Z,6.90
2023-01-22T14:09:50.645Z,9.10
2023-01-22T14:12:44.377Z,12.10
2023-01-22T14:15:34.375Z,10.50
2023-01-22T14:18:31.470Z,10.50
2023-01-22T14:21:22.510Z,6.30
2023-01-22T14:23:58.964Z,11.10
2023-01-22T14:26:47.464Z,11.30
2023-01-22T14:29:30.240Z,7.20
2023-01-22T14:32:25.416Z,9.00
2023-01-22T14:35:15.747Z,11.20
2023-01-22T14:38:00.469Z,8.10
2023-01-22T14:40:56.373Z,8.20
2023-01-22T14:43:51.388Z,9.60
2023-01-22T14:46:39.397Z,8.90
2023-01-22T14:49:15.147Z,9.80
2023-01-22T14:52:03.391Z,12.50
2023-01-22T14:54:40.272Z,13.50
2023-01-22T14:57:31.570Z,9.20
2023-01-22T15:00:15.368Z,12.00
2023-01-22T15:03:11.372Z,7.70
2023-01-22T15:05:59.370Z,11.20
2023-01-22T15:08:34.495Z,12.20
2023-01-22T15:11:23.378Z,10.50
2023-01-22T15:13:58.523Z,10.40
2023-01-22T15:16:47.407Z,9.00
2023-01-22T15:19:32.182Z,7.40
2023-01-22T15:22:17.435Z,9.70
2023-01-22T15:24:58.602Z,7.20
2023-01-22T15:27:40.504Z,9.40
2023-01-22T15:30:28.522Z,6.60
2023-01-22T15:33:23.383Z,9.50
2023-01-22T15:36:13.367Z,6.10
2023-01-22T15:38:55.351Z,4.30
2023-01-22T15:41:50.348Z,4.10
2023-01-22T15:44:38.337Z,8.20
2023-01-22T15:47:14.631Z,8.20
2023-01-22T15:50:02.356Z,9.20
2023-01-22T15:52:45.375Z,6.00
2023-01-22T15:55:34.356Z,6.50
2023-01-22T15:58:16.351Z,8.10
2023-01-22T16:01:11.412Z,4.50
2023-01-22T16:04:06.878Z,4.80
2023-01-22T16:06:42.480Z,7.00
2023-01-22T16:09:30.359Z,5.90
2023-01-22T16:12:05.460Z,7.30
2023-01-22T16:14:53.364Z,7.20
2023-01-22T16:17:34.488Z,5.90
2023-01-22T16:20:16.504Z,5.60
2023-01-22T16:22:57.475Z,5.10
2023-01-22T16:25:38.758Z,5.20
2023-01-22T16:28:27.352Z,6.40
2023-01-22T16:31:06.425Z,7.40
2023-01-22T16:33:56.350Z,6.90
2023-01-22T16:36:39.360Z,8.30
2023-01-22T16:39:27.484Z,7.80
2023-01-22T16:42:08.411Z,7.80
2023-01-22T16:44:57.365Z,7.40
2023-01-22T16:47:34.745Z,8.70
2023-01-22T16:50:23.321Z,10.80
2023-01-22T16:52:57.875Z,14.40
2023-01-22T16:55:45.293Z,10.30
2023-01-22T16:58:19.991Z,8.30
2023-01-22T17:01:08.442Z,11.10
2023-01-22T17:03:43.254Z,10.60
2023-01-22T17:06:53.371Z,7.50
2023-01-22T17:09:30.198Z,9.40
2023-01-22T17:12:20.369Z,12.30
2023-01-22T17:14:54.810Z,11.20
2023-01-22T17:17:42.303Z,11.50
2023-01-22T17:20:30.345Z,11.70
2023-01-22T17:23:05.449Z,6.20
2023-01-22T17:25:54.517Z,13.60
2023-01-22T17:28:30.528Z,12.70
2023-01-22T17:31:22.512Z,13.50
2023-01-22T17:33:59.259Z,14.40
2023-01-22T17:36:48.505Z,12.20
2023-01-22T17:39:24.978Z,10.80
2023-01-22T17:42:13.337Z,12.10
2023-01-22T17:44:48.612Z,20.20
2023-01-22T17:47:36.316Z,18.30
2023-01-22T17:50:13.008Z,21.60
2023-01-22T17:53:02.340Z,29.70
2023-01-22T17:55:40.093Z,20.70
2023-01-22T17:58:28.370Z,14.20
2023-01-22T18:01:15.412Z,14.70
2023-01-22T18:04:15.405Z,11.40
2023-01-22T18:07:03.313Z,9.40
2023-01-22T18:09:37.582Z,10.40
2023-01-22T18:12:25.323Z,11.20
2023-01-22T18:15:06.458Z,11.60
2023-01-22T18:17:48.585Z,11.60
2023-01-22T18:20:30.571Z,10.80
2023-01-22T18:23:12.488Z,11.60
2023-01-22T18:25:58.123Z,9.50
2023-01-22T18:28:40.306Z,9.00
2023-01-22T18:31:24.953Z,8.80
2023-01-22T18:34:09.503Z,11.50
2023-01-22T18:36:50.495Z,9.50
2023-01-22T18:39:32.310Z,9.00
2023-01-22T18:42:13.477Z,10.10
2023-01-22T18:44:54.326Z,10.90
2023-01-22T18:47:37.570Z,12.70
2023-01-22T18:50:23.316Z,14.90
2023-01-22T18:53:13.318Z,10.70
2023-01-22T18:55:54.355Z,9.90
2023-01-22T18:58:36.701Z,11.00
2023-01-22T19:01:25.553Z,14.40
2023-01-22T19:04:20.764Z,14.10
2023-01-22T19:06:57.949Z,14.70
2023-01-22T19:09:49.271Z,13.20
2023-01-22T19:12:32.443Z,14.00
2023-01-22T19:15:22.527Z,12.40
2023-01-22T19:17:59.042Z,7.70
2023-01-22T19:20:49.323Z,9.30
2023-01-22T19:23:23.751Z,10.80
2023-01-22T19:26:28.317Z,14.40
2023-01-22T19:29:05.808Z,11.40
2023-01-22T19:31:54.352Z,12.10
2023-01-22T19:34:47.322Z,12.60
2023-01-22T19:37:36.349Z,13.60
2023-01-22T19:40:13.614Z,12.30
2023-01-22T19:43:01.322Z,14.60
2023-01-22T19:45:36.822Z,19.10
2023-01-22T19:48:25.395Z,20.00
2023-01-22T19:51:14.348Z,13.90
2023-01-22T19:54:16.398Z,15.20
2023-01-22T19:57:04.331Z,14.60
2023-01-22T19:59:39.771Z,14.20
2023-01-22T20:02:31.264Z,13.90
2023-01-22T20:05:06.812Z,13.30
2023-01-22T20:08:01.475Z,11.90
2023-01-22T20:10:58.835Z,12.50
2023-01-22T20:13:46.339Z,19.30
2023-01-22T20:16:30.575Z,16.30
2023-01-22T20:19:18.300Z,15.40
2023-01-22T20:21:53.442Z,13.40
2023-01-22T20:24:44.336Z,12.90
2023-01-22T20:27:20.646Z,14.20
2023-01-22T20:30:08.315Z,14.20
2023-01-22T20:32:43.460Z,14.10
2023-01-22T20:35:31.316Z,11.30
2023-01-22T20:38:12.494Z,12.30
2023-01-22T20:40:54.305Z,13.80
2023-01-22T20:43:42.296Z,12.50
2023-01-22T20:46:22.486Z,12.00
2023-01-22T20:49:11.648Z,12.70
2023-01-22T20:51:46.766Z,12.20
2023-01-22T20:54:36.967Z,12.30
2023-01-22T20:57:24.289Z,11.20
2023-01-22T21:00:07.431Z,10.90
2023-01-22T21:02:50.289Z,11.10
2023-01-22T21:05:38.330Z,18.90
2023-01-22T21:08:26.475Z,16.20
2023-01-22T21:11:17.277Z,12.80
2023-01-22T21:13:53.425Z,18.00
2023-01-22T21:16:43.356Z,9.00
2023-01-22T21:19:34.314Z,9.90
2023-01-22T21:22:30.286Z,9.30
2023-01-22T21:25:23.406Z,11.50
2023-01-22T21:28:06.406Z,10.90
2023-01-22T21:30:48.422Z,11.50
2023-01-22T21:33:29.584Z,12.00
2023-01-22T21:36:12.288Z,12.60
2023-01-22T21:39:00.380Z,11.10
2023-01-22T21:41:35.355Z,8.80
2023-01-22T21:44:44.297Z,11.20
2023-01-22T21:47:20.335Z,8.00
2023-01-22T21:50:09.419Z,10.90
2023-01-22T21:52:46.053Z,9.30
2023-01-22T21:55:36.080Z,7.80
2023-01-22T21:58:13.053Z,8.60
2023-01-22T22:00:55.331Z,8.70
2023-01-22T22:03:39.261Z,8.80
2023-01-22T22:06:14.276Z,8.90
2023-01-22T22:09:02.348Z,9.20
2023-01-22T22:11:57.967Z,10.80
2023-01-22T22:14:47.279Z,10.20
2023-01-22T22:17:29.313Z,9.80
2023-01-22T22:20:25.335Z,8.30
2023-01-22T22:23:13.309Z,7.60
2023-01-22T22:25:49.758Z,9.30
2023-01-22T22:28:38.281Z,8.80
2023-01-22T22:31:18.494Z,9.70
2023-01-22T22:36:41.443Z,7.90
2023-01-22T22:39:44.207Z,8.50
2023-01-22T22:42:20.513Z,9.40
2023-01-22T22:45:31.153Z,8.10
2023-01-22T22:48:33.053Z,7.70
2023-01-22T22:51:59.482Z,7.40
2023-01-22T22:54:53.270Z,7.90
2023-01-22T22:57:28.461Z,8.50
2023-01-22T23:00:18.527Z,9.30
2023-01-22T23:02:53.592Z,10.70
2023-01-22T23:05:45.262Z,9.90
2023-01-22T23:08:26.252Z,8.40
2023-01-22T23:11:23.281Z,7.40
2023-01-22T23:14:12.275Z,6.60
2023-01-22T23:16:48.663Z,7.70
2023-01-22T23:19:37.268Z,6.80
2023-01-22T23:22:12.417Z,7.90
2023-01-22T23:25:00.280Z,6.70
2023-01-22T23:27:36.374Z,7.80
2023-01-22T23:30:24.402Z,7.50
2023-01-22T23:33:06.232Z,7.50
2023-01-22T23:36:01.670Z,7.20
2023-01-22T23:38:50.374Z,7.70
2023-01-22T23:41:27.404Z,7.50
2023-01-22T23:44:15.263Z,7.80
2023-01-22T23:46:57.457Z,6.70
2023-01-22T23:49:52.282Z,7.50
2023-01-22T23:52:40.459Z,7.50
2023-01-22T23:55:18.409Z,7.10
2023-01-22T23:58:07.293Z,8.00
